sensor_id;sensor_type;location;lat;lon;timestamp;temperature;humidity
32201;DHT22;18701;45.588;5.288;2023-11-18T00:02:16;6.50;99.90
32201;DHT22;18701;45.588;5.288;2023-11-18T00:04:42;6.40;99.90
32201;DHT22;18701;45.588;5.288;2023-11-18T00:07:07;6.70;99.90
32201;DHT22;18701;45.588;5.288;2023-11-18T00:09:33;6.60;99.90
32201;DHT22;18701;45.588;5.288;2023-11-18T00:11:58;6.50;99.90
32201;DHT22;18701;45.588;5.288;2023-11-18T00:14:24;6.60;99.90
32201;DHT22;18701;45.588;5.288;2023-11-18T00:16:50;6.70;99.90
32201;DHT22;18701;45.588;5.288;2023-11-18T00:19:15;6.50;99.90
32201;DHT22;18701;45.588;5.288;2023-11-18T00:21:41;6.60;99.90
32201;DHT22;18701;45.588;5.288;2023-11-18T00:24:08;6.70;99.90
32201;DHT22;18701;45.588;5.288;2023-11-18T00:26:33;6.60;99.90
32201;DHT22;18701;45.588;5.288;2023-11-18T00:28:59;6.40;99.90
32201;DHT22;18701;45.588;5.288;2023-11-18T00:31:26;6.40;99.90
32201;DHT22;18701;45.588;5.288;2023-11-18T00:33:52;6.20;99.90
32201;DHT22;18701;45.588;5.288;2023-11-18T00:36:18;6.20;99.90
32201;DHT22;18701;45.588;5.288;2023-11-18T00:38:43;6.30;99.90
32201;DHT22;18701;45.588;5.288;2023-11-18T00:41:09;6.30;99.90
32201;DHT22;18701;45.588;5.288;2023-11-18T00:43:34;6.10;99.90
32201;DHT22;18701;45.588;5.288;2023-11-18T00:46:00;6.30;99.90
32201;DHT22;18701;45.588;5.288;2023-11-18T00:48:26;6.30;99.90
32201;DHT22;18701;45.588;5.288;2023-11-18T00:50:53;6.00;99.90
32201;DHT22;18701;45.588;5.288;2023-11-18T00:53:19;6.10;99.90
32201;DHT22;18701;45.588;5.288;2023-11-18T00:55:44;6.10;99.90
32201;DHT22;18701;45.588;5.288;2023-11-18T00:58:10;6.20;99.90
32201;DHT22;18701;45.588;5.288;2023-11-18T01:00:36;6.20;99.90
32201;DHT22;18701;45.588;5.288;2023-11-18T01:03:02;6.20;99.90
32201;DHT22;18701;45.588;5.288;2023-11-18T01:05:28;6.20;99.90
32201;DHT22;18701;45.588;5.288;2023-11-18T01:07:57;6.30;99.90
32201;DHT22;18701;45.588;5.288;2023-11-18T01:10:22;6.20;99.90
32201;DHT22;18701;45.588;5.288;2023-11-18T01:12:48;6.00;99.90
32201;DHT22;18701;45.588;5.288;2023-11-18T01:15:13;6.10;99.90
32201;DHT22;18701;45.588;5.288;2023-11-18T01:17:39;5.90;99.90
32201;DHT22;18701;45.588;5.288;2023-11-18T01:20:07;6.00;99.90
32201;DHT22;18701;45.588;5.288;2023-11-18T01:22:37;6.00;99.90
32201;DHT22;18701;45.588;5.288;2023-11-18T01:25:04;5.90;99.90
32201;DHT22;18701;45.588;5.288;2023-11-18T01:27:30;6.00;99.90
32201;DHT22;18701;45.588;5.288;2023-11-18T01:29:56;5.90;99.90
32201;DHT22;18701;45.588;5.288;2023-11-18T01:32:21;5.80;99.90
32201;DHT22;18701;45.588;5.288;2023-11-18T01:34:47;5.90;99.90
32201;DHT22;18701;45.588;5.288;2023-11-18T01:37:18;5.90;99.90
32201;DHT22;18701;45.588;5.288;2023-11-18T01:39:46;5.90;99.90
32201;DHT22;18701;45.588;5.288;2023-11-18T01:42:12;5.80;99.90
32201;DHT22;18701;45.588;5.288;2023-11-18T01:44:38;5.80;99.90
32201;DHT22;18701;45.588;5.288;2023-11-18T01:47:05;5.90;99.90
32201;DHT22;18701;45.588;5.288;2023-11-18T01:49:32;5.80;99.90
32201;DHT22;18701;45.588;5.288;2023-11-18T01:52:02;6.00;99.90
32201;DHT22;18701;45.588;5.288;2023-11-18T01:54:29;5.90;99.90
32201;DHT22;18701;45.588;5.288;2023-11-18T01:56:55;5.90;99.90
32201;DHT22;18701;45.588;5.288;2023-11-18T01:59:21;5.90;99.90
32201;DHT22;18701;45.588;5.288;2023-11-18T02:01:48;5.90;99.90
32201;DHT22;18701;45.588;5.288;2023-11-18T02:04:15;5.70;99.90
32201;DHT22;18701;45.588;5.288;2023-11-18T02:06:42;5.90;99.90
32201;DHT22;18701;45.588;5.288;2023-11-18T02:09:10;5.80;99.90
32201;DHT22;18701;45.588;5.288;2023-11-18T02:11:41;5.80;99.90
32201;DHT22;18701;45.588;5.288;2023-11-18T02:14:13;5.80;99.90
32201;DHT22;18701;45.588;5.288;2023-11-18T02:16:43;5.80;99.90
32201;DHT22;18701;45.588;5.288;2023-11-18T02:19:20;5.80;99.90
32201;DHT22;18701;45.588;5.288;2023-11-18T02:21:48;5.60;99.90
32201;DHT22;18701;45.588;5.288;2023-11-18T02:24:29;5.60;99.90
32201;DHT22;18701;45.588;5.288;2023-11-18T02:27:03;5.60;99.90
32201;DHT22;18701;45.588;5.288;2023-11-18T02:29:39;5.50;99.90
32201;DHT22;18701;45.588;5.288;2023-11-18T02:32:39;5.30;99.90
32201;DHT22;18701;45.588;5.288;2023-11-18T02:35:09;5.50;99.90
32201;DHT22;18701;45.588;5.288;2023-11-18T02:37:44;5.30;99.90
32201;DHT22;18701;45.588;5.288;2023-11-18T02:40:17;5.20;99.90
32201;DHT22;18701;45.588;5.288;2023-11-18T02:42:45;5.40;99.90
32201;DHT22;18701;45.588;5.288;2023-11-18T02:45:13;5.40;99.90
32201;DHT22;18701;45.588;5.288;2023-11-18T02:47:43;5.40;99.90
32201;DHT22;18701;45.588;5.288;2023-11-18T02:50:09;5.30;99.90
32201;DHT22;18701;45.588;5.288;2023-11-18T02:52:39;5.20;99.90
32201;DHT22;18701;45.588;5.288;2023-11-18T02:55:06;5.00;99.90
32201;DHT22;18701;45.588;5.288;2023-11-18T02:57:33;5.30;99.90
32201;DHT22;18701;45.588;5.288;2023-11-18T02:59:59;5.40;99.90
32201;DHT22;18701;45.588;5.288;2023-11-18T03:02:28;5.40;99.90
32201;DHT22;18701;45.588;5.288;2023-11-18T03:04:58;5.40;99.90
32201;DHT22;18701;45.588;5.288;2023-11-18T03:07:24;5.30;99.90
32201;DHT22;18701;45.588;5.288;2023-11-18T03:09:55;5.50;99.90
32201;DHT22;18701;45.588;5.288;2023-11-18T03:12:25;5.20;99.90
32201;DHT22;18701;45.588;5.288;2023-11-18T03:14:53;5.30;99.90
32201;DHT22;18701;45.588;5.288;2023-11-18T03:17:19;5.40;99.90
32201;DHT22;18701;45.588;5.288;2023-11-18T03:19:45;5.40;99.90
32201;DHT22;18701;45.588;5.288;2023-11-18T03:22:11;5.40;99.90
32201;DHT22;18701;45.588;5.288;2023-11-18T03:24:38;5.20;99.90
32201;DHT22;18701;45.588;5.288;2023-11-18T03:27:04;5.10;99.90
32201;DHT22;18701;45.588;5.288;2023-11-18T03:29:30;5.20;99.90
32201;DHT22;18701;45.588;5.288;2023-11-18T03:31:55;5.10;99.90
32201;DHT22;18701;45.588;5.288;2023-11-18T03:34:21;5.20;99.90
32201;DHT22;18701;45.588;5.288;2023-11-18T03:36:47;5.10;99.90
32201;DHT22;18701;45.588;5.288;2023-11-18T03:39:13;5.00;99.90
32201;DHT22;18701;45.588;5.288;2023-11-18T03:41:43;5.10;99.90
32201;DHT22;18701;45.588;5.288;2023-11-18T03:44:11;4.90;99.90
32201;DHT22;18701;45.588;5.288;2023-11-18T03:46:37;5.10;99.90
32201;DHT22;18701;45.588;5.288;2023-11-18T03:49:03;5.20;99.90
32201;DHT22;18701;45.588;5.288;2023-11-18T03:51:29;5.20;99.90
32201;DHT22;18701;45.588;5.288;2023-11-18T03:53:55;5.10;99.90
32201;DHT22;18701;45.588;5.288;2023-11-18T03:56:20;5.10;99.90
32201;DHT22;18701;45.588;5.288;2023-11-18T03:58:46;5.20;99.90
32201;DHT22;18701;45.588;5.288;2023-11-18T04:01:26;4.90;99.90
32201;DHT22;18701;45.588;5.288;2023-11-18T04:03:55;4.90;99.90
32201;DHT22;18701;45.588;5.288;2023-11-18T04:06:21;5.10;99.90
32201;DHT22;18701;45.588;5.288;2023-11-18T04:08:48;5.20;99.90
32201;DHT22;18701;45.588;5.288;2023-11-18T04:11:14;5.10;99.90
32201;DHT22;18701;45.588;5.288;2023-11-18T04:13:40;5.00;99.90
32201;DHT22;18701;45.588;5.288;2023-11-18T04:16:15;5.00;99.90
32201;DHT22;18701;45.588;5.288;2023-11-18T04:18:43;5.00;99.90
32201;DHT22;18701;45.588;5.288;2023-11-18T04:21:10;5.00;99.90
32201;DHT22;18701;45.588;5.288;2023-11-18T04:23:39;4.90;99.90
32201;DHT22;18701;45.588;5.288;2023-11-18T04:26:06;4.90;99.90
32201;DHT22;18701;45.588;5.288;2023-11-18T04:28:36;5.00;99.90
32201;DHT22;18701;45.588;5.288;2023-11-18T04:31:02;5.10;99.90
32201;DHT22;18701;45.588;5.288;2023-11-18T04:33:28;4.90;99.90
32201;DHT22;18701;45.588;5.288;2023-11-18T04:35:55;4.90;99.90
32201;DHT22;18701;45.588;5.288;2023-11-18T04:38:22;5.00;99.90
32201;DHT22;18701;45.588;5.288;2023-11-18T04:40:48;5.10;99.90
32201;DHT22;18701;45.588;5.288;2023-11-18T04:43:14;5.20;99.90
32201;DHT22;18701;45.588;5.288;2023-11-18T04:45:43;5.30;99.90
32201;DHT22;18701;45.588;5.288;2023-11-18T04:48:09;5.30;99.90
32201;DHT22;18701;45.588;5.288;2023-11-18T04:50:34;5.30;99.90
32201;DHT22;18701;45.588;5.288;2023-11-18T04:53:00;5.30;99.90
32201;DHT22;18701;45.588;5.288;2023-11-18T04:55:28;5.20;99.90
32201;DHT22;18701;45.588;5.288;2023-11-18T04:57:54;5.20;99.90
32201;DHT22;18701;45.588;5.288;2023-11-18T05:00:20;5.20;99.90
32201;DHT22;18701;45.588;5.288;2023-11-18T05:02:46;5.20;99.90
32201;DHT22;18701;45.588;5.288;2023-11-18T05:05:14;5.30;99.90
32201;DHT22;18701;45.588;5.288;2023-11-18T05:07:40;5.30;99.90
32201;DHT22;18701;45.588;5.288;2023-11-18T05:10:06;5.20;99.90
32201;DHT22;18701;45.588;5.288;2023-11-18T05:12:36;5.20;99.90
32201;DHT22;18701;45.588;5.288;2023-11-18T05:15:03;5.20;99.90
32201;DHT22;18701;45.588;5.288;2023-11-18T05:17:30;5.20;99.90
32201;DHT22;18701;45.588;5.288;2023-11-18T05:19:55;5.20;99.90
32201;DHT22;18701;45.588;5.288;2023-11-18T05:22:21;5.10;99.90
32201;DHT22;18701;45.588;5.288;2023-11-18T05:24:47;5.10;99.90
32201;DHT22;18701;45.588;5.288;2023-11-18T05:27:14;5.30;99.90
32201;DHT22;18701;45.588;5.288;2023-11-18T05:29:40;5.40;99.90
32201;DHT22;18701;45.588;5.288;2023-11-18T05:32:10;5.30;99.90
32201;DHT22;18701;45.588;5.288;2023-11-18T05:34:36;5.20;99.90
32201;DHT22;18701;45.588;5.288;2023-11-18T05:37:01;5.20;99.90
32201;DHT22;18701;45.588;5.288;2023-11-18T05:39:27;5.10;99.90
32201;DHT22;18701;45.588;5.288;2023-11-18T05:41:56;5.10;99.90
32201;DHT22;18701;45.588;5.288;2023-11-18T05:44:22;5.10;99.90
32201;DHT22;18701;45.588;5.288;2023-11-18T05:46:57;5.20;99.90
32201;DHT22;18701;45.588;5.288;2023-11-18T05:49:22;5.00;99.90
32201;DHT22;18701;45.588;5.288;2023-11-18T05:51:50;4.90;99.90
32201;DHT22;18701;45.588;5.288;2023-11-18T05:54:15;4.90;99.90
32201;DHT22;18701;45.588;5.288;2023-11-18T05:56:41;5.00;99.90
32201;DHT22;18701;45.588;5.288;2023-11-18T05:59:09;5.10;99.90
32201;DHT22;18701;45.588;5.288;2023-11-18T06:01:36;5.00;99.90
32201;DHT22;18701;45.588;5.288;2023-11-18T06:04:03;5.00;99.90
32201;DHT22;18701;45.588;5.288;2023-11-18T06:06:28;4.90;99.90
32201;DHT22;18701;45.588;5.288;2023-11-18T06:08:54;4.90;99.90
32201;DHT22;18701;45.588;5.288;2023-11-18T06:11:20;4.90;99.90
32201;DHT22;18701;45.588;5.288;2023-11-18T06:13:47;5.00;99.90
32201;DHT22;18701;45.588;5.288;2023-11-18T06:18:43;4.80;99.90
32201;DHT22;18701;45.588;5.288;2023-11-18T06:21:16;4.70;99.90
32201;DHT22;18701;45.588;5.288;2023-11-18T06:23:42;4.80;99.90
32201;DHT22;18701;45.588;5.288;2023-11-18T06:26:08;4.70;99.90
32201;DHT22;18701;45.588;5.288;2023-11-18T06:28:37;4.80;99.90
32201;DHT22;18701;45.588;5.288;2023-11-18T06:31:02;4.90;99.90
32201;DHT22;18701;45.588;5.288;2023-11-18T06:33:28;4.80;99.90
32201;DHT22;18701;45.588;5.288;2023-11-18T06:35:54;5.00;99.90
32201;DHT22;18701;45.588;5.288;2023-11-18T06:38:22;4.90;99.90
32201;DHT22;18701;45.588;5.288;2023-11-18T06:40:48;4.90;99.90
32201;DHT22;18701;45.588;5.288;2023-11-18T06:43:19;5.00;99.90
32201;DHT22;18701;45.588;5.288;2023-11-18T06:45:45;5.10;99.90
32201;DHT22;18701;45.588;5.288;2023-11-18T06:48:11;5.10;99.90
32201;DHT22;18701;45.588;5.288;2023-11-18T06:50:39;5.10;99.90
32201;DHT22;18701;45.588;5.288;2023-11-18T06:53:09;5.20;99.90
32201;DHT22;18701;45.588;5.288;2023-11-18T06:55:36;5.20;99.90
32201;DHT22;18701;45.588;5.288;2023-11-18T06:58:01;5.20;99.90
32201;DHT22;18701;45.588;5.288;2023-11-18T07:00:28;5.10;99.90
32201;DHT22;18701;45.588;5.288;2023-11-18T07:02:54;5.00;99.90
32201;DHT22;18701;45.588;5.288;2023-11-18T07:05:20;4.90;99.90
32201;DHT22;18701;45.588;5.288;2023-11-18T07:07:49;4.90;99.90
32201;DHT22;18701;45.588;5.288;2023-11-18T07:10:15;5.10;99.90
32201;DHT22;18701;45.588;5.288;2023-11-18T07:12:44;5.00;99.90
32201;DHT22;18701;45.588;5.288;2023-11-18T07:15:09;5.20;99.90
32201;DHT22;18701;45.588;5.288;2023-11-18T07:17:36;5.20;99.90
32201;DHT22;18701;45.588;5.288;2023-11-18T07:20:01;5.10;99.90
32201;DHT22;18701;45.588;5.288;2023-11-18T07:22:27;5.30;99.90
32201;DHT22;18701;45.588;5.288;2023-11-18T07:24:56;5.20;99.90
32201;DHT22;18701;45.588;5.288;2023-11-18T07:27:21;5.20;99.90
32201;DHT22;18701;45.588;5.288;2023-11-18T07:29:47;5.40;99.90
32201;DHT22;18701;45.588;5.288;2023-11-18T07:32:13;5.40;99.90
32201;DHT22;18701;45.588;5.288;2023-11-18T07:34:39;5.40;99.90
32201;DHT22;18701;45.588;5.288;2023-11-18T07:37:06;5.50;99.90
32201;DHT22;18701;45.588;5.288;2023-11-18T07:39:34;5.50;99.90
32201;DHT22;18701;45.588;5.288;2023-11-18T07:42:14;5.60;99.90
32201;DHT22;18701;45.588;5.288;2023-11-18T07:44:40;5.70;99.90
32201;DHT22;18701;45.588;5.288;2023-11-18T07:47:06;5.70;99.90
32201;DHT22;18701;45.588;5.288;2023-11-18T07:49:34;5.60;99.90
32201;DHT22;18701;45.588;5.288;2023-11-18T07:52:03;5.70;99.90
32201;DHT22;18701;45.588;5.288;2023-11-18T07:54:29;5.90;99.90
32201;DHT22;18701;45.588;5.288;2023-11-18T07:56:54;5.80;99.90
32201;DHT22;18701;45.588;5.288;2023-11-18T07:59:20;5.80;99.90
32201;DHT22;18701;45.588;5.288;2023-11-18T08:01:47;5.80;99.90
32201;DHT22;18701;45.588;5.288;2023-11-18T08:04:13;5.90;99.90
32201;DHT22;18701;45.588;5.288;2023-11-18T08:06:42;5.70;99.90
32201;DHT22;18701;45.588;5.288;2023-11-18T08:09:09;6.00;99.90
32201;DHT22;18701;45.588;5.288;2023-11-18T08:11:38;6.20;99.90
32201;DHT22;18701;45.588;5.288;2023-11-18T08:14:07;6.40;99.90
32201;DHT22;18701;45.588;5.288;2023-11-18T08:16:33;6.50;99.90
32201;DHT22;18701;45.588;5.288;2023-11-18T08:18:59;6.40;99.90
32201;DHT22;18701;45.588;5.288;2023-11-18T08:21:25;6.40;99.90
32201;DHT22;18701;45.588;5.288;2023-11-18T08:23:51;6.50;99.90
32201;DHT22;18701;45.588;5.288;2023-11-18T08:26:17;6.70;99.90
32201;DHT22;18701;45.588;5.288;2023-11-18T08:28:42;6.90;99.90
32201;DHT22;18701;45.588;5.288;2023-11-18T08:31:08;7.10;99.90
32201;DHT22;18701;45.588;5.288;2023-11-18T08:33:34;7.50;99.90
32201;DHT22;18701;45.588;5.288;2023-11-18T08:36:00;7.60;99.90
32201;DHT22;18701;45.588;5.288;2023-11-18T08:38:27;7.60;99.90
32201;DHT22;18701;45.588;5.288;2023-11-18T08:40:53;7.60;99.90
32201;DHT22;18701;45.588;5.288;2023-11-18T08:43:20;7.40;99.90
32201;DHT22;18701;45.588;5.288;2023-11-18T08:45:46;7.60;99.90
32201;DHT22;18701;45.588;5.288;2023-11-18T08:48:13;7.80;99.90
32201;DHT22;18701;45.588;5.288;2023-11-18T08:50:39;8.00;99.90
32201;DHT22;18701;45.588;5.288;2023-11-18T08:53:08;8.10;99.90
32201;DHT22;18701;45.588;5.288;2023-11-18T08:55:35;8.20;99.90
32201;DHT22;18701;45.588;5.288;2023-11-18T08:58:15;8.20;99.90
32201;DHT22;18701;45.588;5.288;2023-11-18T09:00:48;8.20;99.90
32201;DHT22;18701;45.588;5.288;2023-11-18T09:03:15;8.30;99.90
32201;DHT22;18701;45.588;5.288;2023-11-18T09:05:56;8.40;99.90
32201;DHT22;18701;45.588;5.288;2023-11-18T09:08:32;8.30;99.90
32201;DHT22;18701;45.588;5.288;2023-11-18T09:11:04;8.30;99.90
32201;DHT22;18701;45.588;5.288;2023-11-18T09:13:31;8.20;99.90
32201;DHT22;18701;45.588;5.288;2023-11-18T09:16:02;8.30;99.90
32201;DHT22;18701;45.588;5.288;2023-11-18T09:18:29;8.20;99.90
32201;DHT22;18701;45.588;5.288;2023-11-18T09:20:59;8.20;99.90
32201;DHT22;18701;45.588;5.288;2023-11-18T09:23:26;8.30;99.90
32201;DHT22;18701;45.588;5.288;2023-11-18T09:25:55;8.50;99.90
32201;DHT22;18701;45.588;5.288;2023-11-18T09:28:23;8.70;99.90
32201;DHT22;18701;45.588;5.288;2023-11-18T09:30:50;8.60;99.90
32201;DHT22;18701;45.588;5.288;2023-11-18T09:33:20;8.80;99.90
32201;DHT22;18701;45.588;5.288;2023-11-18T09:35:55;8.70;99.90
32201;DHT22;18701;45.588;5.288;2023-11-18T09:38:25;8.80;99.90
32201;DHT22;18701;45.588;5.288;2023-11-18T09:40:53;8.90;99.90
32201;DHT22;18701;45.588;5.288;2023-11-18T09:43:19;9.10;99.90
32201;DHT22;18701;45.588;5.288;2023-11-18T09:45:49;9.20;99.90
32201;DHT22;18701;45.588;5.288;2023-11-18T09:48:18;9.50;99.90
32201;DHT22;18701;45.588;5.288;2023-11-18T09:50:47;9.50;99.90
32201;DHT22;18701;45.588;5.288;2023-11-18T09:53:14;9.60;99.90
32201;DHT22;18701;45.588;5.288;2023-11-18T09:55:54;9.80;99.90
32201;DHT22;18701;45.588;5.288;2023-11-18T09:58:37;9.90;99.90
32201;DHT22;18701;45.588;5.288;2023-11-18T10:01:06;9.80;99.90
32201;DHT22;18701;45.588;5.288;2023-11-18T10:03:32;9.80;99.90
32201;DHT22;18701;45.588;5.288;2023-11-18T10:06:03;9.80;99.90
32201;DHT22;18701;45.588;5.288;2023-11-18T10:08:31;9.70;99.90
32201;DHT22;18701;45.588;5.288;2023-11-18T10:10:56;9.70;99.90
32201;DHT22;18701;45.588;5.288;2023-11-18T10:13:31;9.80;99.90
32201;DHT22;18701;45.588;5.288;2023-11-18T10:16:02;9.90;99.90
32201;DHT22;18701;45.588;5.288;2023-11-18T10:18:30;9.90;99.90
32201;DHT22;18701;45.588;5.288;2023-11-18T10:21:00;9.90;99.90
32201;DHT22;18701;45.588;5.288;2023-11-18T10:23:26;10.00;99.90
32201;DHT22;18701;45.588;5.288;2023-11-18T10:25:53;10.20;99.90
32201;DHT22;18701;45.588;5.288;2023-11-18T10:28:26;10.10;99.90
32201;DHT22;18701;45.588;5.288;2023-11-18T10:30:59;10.00;99.90
32201;DHT22;18701;45.588;5.288;2023-11-18T10:33:40;9.90;99.90
32201;DHT22;18701;45.588;5.288;2023-11-18T10:36:20;9.80;99.90
32201;DHT22;18701;45.588;5.288;2023-11-18T10:38:50;9.70;99.90
32201;DHT22;18701;45.588;5.288;2023-11-18T10:41:18;9.60;99.90
32201;DHT22;18701;45.588;5.288;2023-11-18T10:43:44;9.50;99.90
32201;DHT22;18701;45.588;5.288;2023-11-18T10:46:12;9.50;99.90
32201;DHT22;18701;45.588;5.288;2023-11-18T10:48:42;9.50;99.90
32201;DHT22;18701;45.588;5.288;2023-11-18T10:51:13;9.40;99.90
32201;DHT22;18701;45.588;5.288;2023-11-18T10:53:42;9.40;99.90
32201;DHT22;18701;45.588;5.288;2023-11-18T10:56:19;9.40;99.90
32201;DHT22;18701;45.588;5.288;2023-11-18T10:58:45;9.30;99.90
32201;DHT22;18701;45.588;5.288;2023-11-18T11:01:11;9.30;99.90
32201;DHT22;18701;45.588;5.288;2023-11-18T11:03:53;9.30;99.90
32201;DHT22;18701;45.588;5.288;2023-11-18T11:06:21;9.30;99.90
32201;DHT22;18701;45.588;5.288;2023-11-18T11:08:49;9.20;99.90
32201;DHT22;18701;45.588;5.288;2023-11-18T11:11:20;9.20;99.90
32201;DHT22;18701;45.588;5.288;2023-11-18T11:14:00;9.20;99.90
32201;DHT22;18701;45.588;5.288;2023-11-18T11:16:34;9.20;99.90
32201;DHT22;18701;45.588;5.288;2023-11-18T11:19:04;9.20;99.90
32201;DHT22;18701;45.588;5.288;2023-11-18T11:21:42;9.10;99.90
32201;DHT22;18701;45.588;5.288;2023-11-18T11:24:22;9.20;99.90
32201;DHT22;18701;45.588;5.288;2023-11-18T11:27:09;9.10;99.90
32201;DHT22;18701;45.588;5.288;2023-11-18T11:29:57;9.10;99.90
32201;DHT22;18701;45.588;5.288;2023-11-18T11:32:32;9.10;99.90
32201;DHT22;18701;45.588;5.288;2023-11-18T11:35:07;9.10;99.90
32201;DHT22;18701;45.588;5.288;2023-11-18T11:37:35;9.00;99.90
32201;DHT22;18701;45.588;5.288;2023-11-18T11:40:02;9.00;99.90
32201;DHT22;18701;45.588;5.288;2023-11-18T11:42:35;9.10;99.90
32201;DHT22;18701;45.588;5.288;2023-11-18T11:45:01;9.00;99.90
32201;DHT22;18701;45.588;5.288;2023-11-18T11:47:29;9.10;99.90
32201;DHT22;18701;45.588;5.288;2023-11-18T11:50:15;9.10;99.90
32201;DHT22;18701;45.588;5.288;2023-11-18T11:52:48;9.20;99.90
32201;DHT22;18701;45.588;5.288;2023-11-18T11:55:23;9.20;99.90
32201;DHT22;18701;45.588;5.288;2023-11-18T11:57:55;9.20;99.90
32201;DHT22;18701;45.588;5.288;2023-11-18T12:00:23;9.20;99.90
32201;DHT22;18701;45.588;5.288;2023-11-18T12:02:52;9.30;99.90
32201;DHT22;18701;45.588;5.288;2023-11-18T12:05:24;9.30;99.90
32201;DHT22;18701;45.588;5.288;2023-11-18T12:07:53;9.30;99.90
32201;DHT22;18701;45.588;5.288;2023-11-18T12:10:20;9.40;99.90
32201;DHT22;18701;45.588;5.288;2023-11-18T12:12:47;9.40;99.90
32201;DHT22;18701;45.588;5.288;2023-11-18T12:15:13;9.50;99.90
32201;DHT22;18701;45.588;5.288;2023-11-18T12:20:42;9.90;99.90
32201;DHT22;18701;45.588;5.288;2023-11-18T12:23:13;10.20;99.90
32201;DHT22;18701;45.588;5.288;2023-11-18T12:25:49;10.40;99.90
32201;DHT22;18701;45.588;5.288;2023-11-18T12:28:20;10.50;99.90
32201;DHT22;18701;45.588;5.288;2023-11-18T12:30:47;10.70;99.90
32201;DHT22;18701;45.588;5.288;2023-11-18T12:33:23;11.10;99.90
32201;DHT22;18701;45.588;5.288;2023-11-18T12:41:05;16.70;99.90
32201;DHT22;18701;45.588;5.288;2023-11-18T12:46:44;15.40;99.90
32201;DHT22;18701;45.588;5.288;2023-11-18T12:49:16;15.30;99.90
32201;DHT22;18701;45.588;5.288;2023-11-18T12:51:45;14.30;99.90
32201;DHT22;18701;45.588;5.288;2023-11-18T12:54:11;15.90;99.90
32201;DHT22;18701;45.588;5.288;2023-11-18T12:56:41;17.90;99.50
32201;DHT22;18701;45.588;5.288;2023-11-18T12:59:14;20.40;96.60
32201;DHT22;18701;45.588;5.288;2023-11-18T13:01:46;21.30;93.90
32201;DHT22;18701;45.588;5.288;2023-11-18T13:04:17;22.60;91.90
32201;DHT22;18701;45.588;5.288;2023-11-18T13:06:45;21.50;90.80
32201;DHT22;18701;45.588;5.288;2023-11-18T13:09:11;21.70;90.30
32201;DHT22;18701;45.588;5.288;2023-11-18T13:11:57;20.40;91.60
32201;DHT22;18701;45.588;5.288;2023-11-18T13:14:27;20.90;91.20
32201;DHT22;18701;45.588;5.288;2023-11-18T13:16:53;20.30;90.30
32201;DHT22;18701;45.588;5.288;2023-11-18T13:19:26;19.60;91.00
32201;DHT22;18701;45.588;5.288;2023-11-18T13:22:03;18.60;91.50
32201;DHT22;18701;45.588;5.288;2023-11-18T13:24:32;17.00;92.30
32201;DHT22;18701;45.588;5.288;2023-11-18T13:27:00;16.50;93.80
32201;DHT22;18701;45.588;5.288;2023-11-18T13:29:30;15.20;96.50
32201;DHT22;18701;45.588;5.288;2023-11-18T13:31:56;14.60;97.80
32201;DHT22;18701;45.588;5.288;2023-11-18T13:34:23;14.00;99.90
32201;DHT22;18701;45.588;5.288;2023-11-18T13:36:50;14.00;99.90
32201;DHT22;18701;45.588;5.288;2023-11-18T13:39:20;15.20;99.90
32201;DHT22;18701;45.588;5.288;2023-11-18T13:41:50;15.30;99.90
32201;DHT22;18701;45.588;5.288;2023-11-18T13:44:35;14.60;99.90
32201;DHT22;18701;45.588;5.288;2023-11-18T13:47:01;14.20;99.90
32201;DHT22;18701;45.588;5.288;2023-11-18T13:49:28;13.80;99.90
32201;DHT22;18701;45.588;5.288;2023-11-18T13:51:55;13.10;99.90
32201;DHT22;18701;45.588;5.288;2023-11-18T13:54:21;13.40;99.90
32201;DHT22;18701;45.588;5.288;2023-11-18T13:56:51;13.20;99.90
32201;DHT22;18701;45.588;5.288;2023-11-18T13:59:18;12.90;99.90
32201;DHT22;18701;45.588;5.288;2023-11-18T14:01:44;13.00;99.90
32201;DHT22;18701;45.588;5.288;2023-11-18T14:04:10;13.10;99.90
32201;DHT22;18701;45.588;5.288;2023-11-18T14:06:36;13.20;99.90
32201;DHT22;18701;45.588;5.288;2023-11-18T14:09:02;12.90;99.90
32201;DHT22;18701;45.588;5.288;2023-11-18T14:11:30;12.80;99.90
32201;DHT22;18701;45.588;5.288;2023-11-18T14:13:56;12.60;99.90
32201;DHT22;18701;45.588;5.288;2023-11-18T14:16:21;12.50;99.90
32201;DHT22;18701;45.588;5.288;2023-11-18T14:18:49;12.60;99.90
32201;DHT22;18701;45.588;5.288;2023-11-18T14:21:15;12.60;99.90
32201;DHT22;18701;45.588;5.288;2023-11-18T14:23:40;12.50;99.90
32201;DHT22;18701;45.588;5.288;2023-11-18T14:26:06;12.40;99.90
32201;DHT22;18701;45.588;5.288;2023-11-18T14:28:36;12.50;99.90
32201;DHT22;18701;45.588;5.288;2023-11-18T14:31:02;12.30;99.90
32201;DHT22;18701;45.588;5.288;2023-11-18T14:33:33;12.40;99.90
32201;DHT22;18701;45.588;5.288;2023-11-18T14:35:59;12.30;99.90
32201;DHT22;18701;45.588;5.288;2023-11-18T14:38:26;12.10;99.90
32201;DHT22;18701;45.588;5.288;2023-11-18T14:40:52;12.10;99.90
32201;DHT22;18701;45.588;5.288;2023-11-18T14:43:19;12.10;99.90
32201;DHT22;18701;45.588;5.288;2023-11-18T14:45:45;12.10;99.90
32201;DHT22;18701;45.588;5.288;2023-11-18T14:48:10;12.10;99.90
32201;DHT22;18701;45.588;5.288;2023-11-18T14:50:36;12.40;99.90
32201;DHT22;18701;45.588;5.288;2023-11-18T14:53:03;12.30;99.90
32201;DHT22;18701;45.588;5.288;2023-11-18T14:55:31;12.50;99.90
32201;DHT22;18701;45.588;5.288;2023-11-18T14:57:58;12.50;99.90
32201;DHT22;18701;45.588;5.288;2023-11-18T15:00:24;12.50;99.90
32201;DHT22;18701;45.588;5.288;2023-11-18T15:02:53;12.50;99.90
32201;DHT22;18701;45.588;5.288;2023-11-18T15:05:20;12.40;99.90
32201;DHT22;18701;45.588;5.288;2023-11-18T15:07:53;12.30;99.90
32201;DHT22;18701;45.588;5.288;2023-11-18T15:10:24;12.20;99.90
32201;DHT22;18701;45.588;5.288;2023-11-18T15:12:58;12.10;99.90
32201;DHT22;18701;45.588;5.288;2023-11-18T15:15:28;12.00;99.90
32201;DHT22;18701;45.588;5.288;2023-11-18T15:17:58;11.50;99.90
32201;DHT22;18701;45.588;5.288;2023-11-18T15:20:25;11.40;99.90
32201;DHT22;18701;45.588;5.288;2023-11-18T15:22:51;11.20;99.90
32201;DHT22;18701;45.588;5.288;2023-11-18T15:25:17;11.30;99.90
32201;DHT22;18701;45.588;5.288;2023-11-18T15:27:45;11.30;99.90
32201;DHT22;18701;45.588;5.288;2023-11-18T15:30:14;11.10;99.90
32201;DHT22;18701;45.588;5.288;2023-11-18T15:32:43;11.00;99.90
32201;DHT22;18701;45.588;5.288;2023-11-18T15:35:09;10.90;99.90
32201;DHT22;18701;45.588;5.288;2023-11-18T15:37:40;10.80;99.90
32201;DHT22;18701;45.588;5.288;2023-11-18T15:40:12;10.80;99.90
32201;DHT22;18701;45.588;5.288;2023-11-18T15:42:42;10.60;99.90
32201;DHT22;18701;45.588;5.288;2023-11-18T15:45:12;10.50;99.90
32201;DHT22;18701;45.588;5.288;2023-11-18T15:47:39;10.40;99.90
32201;DHT22;18701;45.588;5.288;2023-11-18T15:50:08;10.30;99.90
32201;DHT22;18701;45.588;5.288;2023-11-18T15:52:41;10.20;99.90
32201;DHT22;18701;45.588;5.288;2023-11-18T15:55:07;10.10;99.90
32201;DHT22;18701;45.588;5.288;2023-11-18T15:57:43;10.10;99.90
32201;DHT22;18701;45.588;5.288;2023-11-18T16:00:10;10.00;99.90
32201;DHT22;18701;45.588;5.288;2023-11-18T16:02:41;10.10;99.90
32201;DHT22;18701;45.588;5.288;2023-11-18T16:05:07;10.00;99.90